Rechercher aéroport 
image banner adimage banner ad
image banner ad

DAUE - El Golea

Situé à El Golea, Algeria

ICAO - DAUE, IATA - ELG

Données fournies par Airmate  

Information générale

Coordonnées: N30°34'8" E2°51'53"
Élévation : 1305 feet MSL.
 
Voir autres Aéroports à Ghardaïa Province

Données opérationnelles

Accessible au public
Heure actuelle UTC:
Heure actuelle locale:
Météo
METAR: DAUE 230400Z 09009KT CAVOK 29/06 Q1015
Voir NOTAMs / SUP AIP / TFR affectant cet aéroport [VIEW]
Fréquences de communication: [VIEW]

Pistes:

Identifiant RWYQFULongueur (ft)Largeur (ft)SurfaceLDA (ft)
10102°5906148ASP
28282°5906148
18180°11319148
36360°11319148

Coordonnées de l'aéroport

Adresse: El Golea Algeria

Vue satellite de DAUE